createdAt,value
2023-03-27T00:02:23.452Z,97879.31
2023-03-27T00:07:27.137Z,97877.69
2023-03-27T00:12:32.113Z,97874.28
2023-03-27T00:17:37.131Z,97870.03
2023-03-27T00:22:41.126Z,97874.53
2023-03-27T00:27:46.286Z,97875.50
2023-03-27T00:32:49.753Z,97871.41
2023-03-27T00:37:53.964Z,97873.25
2023-03-27T00:42:59.564Z,97860.56
2023-03-27T00:48:06.790Z,97865.03
2023-03-27T00:53:14.888Z,97883.09
2023-03-27T00:58:24.257Z,97889.38
2023-03-27T01:03:31.708Z,97883.63
2023-03-27T01:08:37.828Z,97884.63
2023-03-27T01:13:58.325Z,97883.31
2023-03-27T01:19:21.826Z,97887.94
2023-03-27T01:24:45.727Z,97881.88
2023-03-27T01:29:59.682Z,97875.69
2023-03-27T01:35:25.845Z,97874.78
2023-03-27T01:40:34.600Z,97880.91
2023-03-27T01:45:44.264Z,97887.84
2023-03-27T01:50:51.755Z,97887.00
2023-03-27T01:56:07.228Z,97892.28
2023-03-27T02:01:12.510Z,97892.28
2023-03-27T02:06:22.095Z,97901.09
2023-03-27T02:11:31.435Z,97900.41
2023-03-27T02:16:41.433Z,97895.13
2023-03-27T02:21:46.145Z,97904.09
2023-03-27T02:26:55.315Z,97903.31
2023-03-27T02:32:13.295Z,97907.78
2023-03-27T02:37:23.201Z,97912.38
2023-03-27T02:42:47.215Z,97916.84
2023-03-27T02:47:56.801Z,97917.75
2023-03-27T02:53:03.966Z,97916.19
2023-03-27T02:58:12.904Z,97916.34
2023-03-27T03:03:22.445Z,97916.50
2023-03-27T03:08:30.772Z,97915.06
2023-03-27T03:13:35.611Z,97919.63
2023-03-27T03:18:39.345Z,97915.34
2023-03-27T03:23:42.756Z,97925.03
2023-03-27T03:29:04.580Z,97906.09
2023-03-27T03:34:07.879Z,97919.84
2023-03-27T03:39:12.749Z,97936.34
2023-03-27T03:44:17.681Z,97938.84
2023-03-27T03:49:21.272Z,97931.84
2023-03-27T03:54:24.815Z,97932.69
2023-03-27T03:59:30.240Z,97932.44
2023-03-27T04:04:33.521Z,97920.53
2023-03-27T04:09:36.824Z,97920.19
2023-03-27T04:14:41.559Z,97928.44
2023-03-27T04:19:46.461Z,97893.16
2023-03-27T04:24:50.730Z,97924.44
2023-03-27T04:29:56.055Z,97938.47
2023-03-27T04:34:59.537Z,97930.63
2023-03-27T04:40:05.314Z,97935.84
2023-03-27T04:45:12.958Z,97929.56
2023-03-27T04:50:17.267Z,97931.63
2023-03-27T04:55:23.113Z,97936.25
2023-03-27T05:00:28.039Z,97925.66
2023-03-27T05:05:31.347Z,97932.91
2023-03-27T05:10:34.677Z,97913.66
2023-03-27T05:15:40.025Z,97935.84
2023-03-27T05:20:44.061Z,97941.78
2023-03-27T05:25:59.987Z,97946.22
2023-03-27T05:31:06.160Z,97955.03
2023-03-27T05:36:10.533Z,97960.44
2023-03-27T05:41:16.215Z,97959.59
2023-03-27T05:46:21.981Z,97950.78
2023-03-27T05:51:25.841Z,97957.41
2023-03-27T05:56:29.391Z,97941.25
2023-03-27T06:01:35.929Z,97950.13
2023-03-27T06:06:39.506Z,97951.72
2023-03-27T06:11:43.049Z,97958.00
2023-03-27T06:16:48.869Z,97970.22
2023-03-27T06:21:52.186Z,97968.19
2023-03-27T06:26:56.240Z,97962.09
2023-03-27T06:32:01.946Z,97962.34
2023-03-27T06:37:05.743Z,97976.22
2023-03-27T06:42:09.093Z,97975.47
2023-03-27T06:47:14.555Z,97963.50
2023-03-27T06:52:18.008Z,97991.22
2023-03-27T06:57:21.865Z,97993.75
2023-03-27T07:02:28.206Z,98001.38
2023-03-27T07:07:32.021Z,97988.03
2023-03-27T07:12:35.504Z,97989.09
2023-03-27T07:17:48.709Z,97977.78
2023-03-27T07:22:53.677Z,97991.78
2023-03-27T07:28:00.514Z,97994.56
2023-03-27T07:33:05.841Z,97984.78
2023-03-27T07:38:09.882Z,97990.75
2023-03-27T07:43:13.491Z,97987.63
2023-03-27T07:48:19.058Z,97985.50
2023-03-27T07:53:33.344Z,97977.44
2023-03-27T07:58:38.201Z,97983.84
2023-03-27T08:03:43.090Z,97980.28
2023-03-27T08:08:47.103Z,97973.47
2023-03-27T08:13:50.493Z,97973.19
2023-03-27T08:18:55.208Z,97963.56
2023-03-27T08:23:58.951Z,97969.22
2023-03-27T08:29:02.399Z,97965.72
2023-03-27T08:34:07.362Z,97977.38
2023-03-27T08:39:11.390Z,97978.13
2023-03-27T08:44:17.377Z,97976.97
2023-03-27T08:49:23.998Z,97968.22
2023-03-27T08:54:29.939Z,97987.59
2023-03-27T08:59:33.517Z,97991.00
2023-03-27T09:04:48.820Z,97999.09
2023-03-27T09:09:59.536Z,98000.59
2023-03-27T09:15:11.173Z,97996.91
2023-03-27T09:20:20.850Z,98011.78
2023-03-27T09:25:29.836Z,98016.09
2023-03-27T09:30:35.960Z,98013.63
2023-03-27T09:35:41.236Z,98010.22
2023-03-27T09:40:47.715Z,98015.75
2023-03-27T09:45:56.352Z,98030.34
2023-03-27T09:51:02.643Z,98022.97
2023-03-27T09:56:14.594Z,98022.00
2023-03-27T10:01:28.130Z,98024.34
2023-03-27T10:06:39.389Z,98024.16
2023-03-27T10:11:42.984Z,98028.88
2023-03-27T10:16:47.876Z,98020.97
2023-03-27T10:21:53.423Z,98021.69
2023-03-27T10:26:59.748Z,98018.50
2023-03-27T10:32:05.351Z,98011.72
2023-03-27T10:37:28.096Z,98007.28
2023-03-27T10:42:33.967Z,98019.16
2023-03-27T10:47:37.447Z,98030.19
2023-03-27T10:52:53.966Z,98046.66
2023-03-27T10:58:01.524Z,98054.44
2023-03-27T11:03:13.879Z,98054.47
2023-03-27T11:08:24.865Z,98045.94
2023-03-27T11:13:32.234Z,98059.66
2023-03-27T11:18:40.507Z,98064.50
2023-03-27T11:23:50.868Z,98066.63
2023-03-27T11:28:59.407Z,98076.50
2023-03-27T11:34:07.723Z,98078.09
2023-03-27T11:39:21.076Z,98087.09
2023-03-27T11:44:26.000Z,98088.19
2023-03-27T11:49:44.411Z,98095.16
2023-03-27T11:55:06.772Z,98089.81
2023-03-27T12:00:25.587Z,98064.06
2023-03-27T12:05:37.802Z,98078.31
2023-03-27T12:10:43.708Z,98079.09
2023-03-27T12:16:05.069Z,98078.13
2023-03-27T12:21:19.826Z,98083.09
2023-03-27T12:26:52.863Z,98069.53
2023-03-27T12:32:26.923Z,98080.72
2023-03-27T12:37:42.013Z,98074.25
2023-03-27T12:42:54.134Z,98081.31
2023-03-27T12:48:17.781Z,98085.09
2023-03-27T12:53:42.157Z,98093.69
2023-03-27T12:58:49.115Z,98100.22
2023-03-27T13:04:12.552Z,98108.53
2023-03-27T13:09:27.812Z,98108.66
2023-03-27T13:14:57.304Z,98114.25
2023-03-27T13:20:10.294Z,98126.72
2023-03-27T13:25:31.899Z,98125.16
2023-03-27T13:30:49.113Z,98128.78
2023-03-27T13:36:04.400Z,98112.44
2023-03-27T13:41:48.940Z,98112.44
2023-03-27T13:46:58.904Z,98105.28
2023-03-27T13:52:43.352Z,98107.97
2023-03-27T13:58:04.250Z,98109.75
2023-03-27T14:03:48.772Z,98135.47
2023-03-27T14:09:06.225Z,98150.00
2023-03-27T14:14:27.732Z,98160.94
2023-03-27T14:19:51.157Z,98177.41
2023-03-27T14:24:57.774Z,98181.34
2023-03-27T14:30:09.975Z,98182.06
2023-03-27T14:35:30.434Z,98187.31
2023-03-27T14:40:39.490Z,98193.19
2023-03-27T14:45:43.403Z,98195.38
2023-03-27T14:50:47.634Z,98188.03
2023-03-27T14:55:54.342Z,98220.13
2023-03-27T15:01:01.029Z,98232.97
2023-03-27T15:06:06.957Z,98229.41
2023-03-27T15:11:16.086Z,98240.03
2023-03-27T15:16:23.517Z,98229.19
2023-03-27T15:21:39.156Z,98251.53
2023-03-27T15:26:44.256Z,98253.38
2023-03-27T15:31:51.163Z,98259.88
2023-03-27T15:37:00.145Z,98284.94
2023-03-27T15:42:13.986Z,98301.16
2023-03-27T15:47:26.378Z,98289.56
2023-03-27T15:52:32.494Z,98316.66
2023-03-27T15:57:37.480Z,98340.88
2023-03-27T16:02:42.350Z,98331.00
2023-03-27T16:07:49.560Z,98319.50
2023-03-27T16:12:58.509Z,98362.41
2023-03-27T16:18:04.361Z,98362.00
2023-03-27T16:23:07.951Z,98382.00
2023-03-27T16:28:19.006Z,98382.00
2023-03-27T16:33:23.759Z,98387.88
2023-03-27T16:38:27.237Z,98397.72
2023-03-27T16:43:32.882Z,98395.84
2023-03-27T16:48:36.506Z,98396.00
2023-03-27T16:53:39.956Z,98409.94
2023-03-27T16:58:44.848Z,98418.88
2023-03-27T17:03:48.194Z,98422.44
2023-03-27T17:08:55.631Z,98419.09
2023-03-27T17:14:00.851Z,98423.69
2023-03-27T17:19:04.751Z,98430.84
2023-03-27T17:24:09.304Z,98433.47
2023-03-27T17:29:14.113Z,98444.88
2023-03-27T17:34:19.557Z,98449.34
2023-03-27T17:39:24.907Z,98454.72
2023-03-27T17:44:29.816Z,98463.94
2023-03-27T17:49:34.737Z,98466.50
2023-03-27T17:54:38.786Z,98471.78
2023-03-27T17:59:44.397Z,98490.75
2023-03-27T18:04:52.278Z,98491.34
2023-03-27T18:09:55.719Z,98500.84
2023-03-27T18:15:00.692Z,98506.84
2023-03-27T18:20:07.615Z,98506.66
2023-03-27T18:25:11.974Z,98516.06
2023-03-27T18:30:19.427Z,98519.78
2023-03-27T18:35:24.111Z,98528.50
2023-03-27T18:40:27.562Z,98531.91
2023-03-27T18:45:32.530Z,98534.56
2023-03-27T18:50:36.052Z,98526.19
2023-03-27T18:55:39.493Z,98547.78
2023-03-27T19:00:44.621Z,98545.19
2023-03-27T19:05:49.077Z,98554.78
2023-03-27T19:10:55.497Z,98568.91
2023-03-27T19:16:01.068Z,98585.69
2023-03-27T19:26:23.277Z,98604.97
2023-03-27T19:31:27.496Z,98619.91
2023-03-27T19:36:31.792Z,98632.31
2023-03-27T19:41:36.846Z,98627.41
2023-03-27T19:46:40.126Z,98638.06
2023-03-27T19:51:43.529Z,98643.41
2023-03-27T19:56:48.475Z,98647.13
2023-03-27T20:01:53.025Z,98642.88
2023-03-27T20:06:59.060Z,98646.38
2023-03-27T20:12:04.564Z,98653.50
2023-03-27T20:17:12.193Z,98657.69
2023-03-27T20:22:24.542Z,98652.66
2023-03-27T20:27:29.733Z,98649.41
2023-03-27T20:32:33.355Z,98666.81
2023-03-27T20:37:39.612Z,98673.41
2023-03-27T20:42:48.103Z,98643.34
2023-03-27T20:47:52.927Z,98672.63
2023-03-27T20:52:58.056Z,98667.25
2023-03-27T20:58:03.411Z,98673.25
2023-03-27T21:03:06.814Z,98652.19
2023-03-27T21:08:10.442Z,98663.47
2023-03-27T21:13:15.306Z,98664.88
2023-03-27T21:18:18.694Z,98668.50
2023-03-27T21:23:22.262Z,98670.00
2023-03-27T21:28:27.409Z,98675.53
2023-03-27T21:33:31.342Z,98681.03
2023-03-27T21:38:34.674Z,98695.41
2023-03-27T21:43:39.701Z,98698.41
2023-03-27T21:48:44.752Z,98710.97
2023-03-27T21:53:48.449Z,98714.50
2023-03-27T21:58:53.385Z,98717.22
2023-03-27T22:04:02.011Z,98727.19
2023-03-27T22:09:05.656Z,98736.06
2023-03-27T22:14:10.405Z,98742.41
2023-03-27T22:19:13.737Z,98750.47
2023-03-27T22:24:17.297Z,98754.97
2023-03-27T22:29:22.149Z,98770.84
2023-03-27T22:34:26.807Z,98773.63
2023-03-27T22:39:30.317Z,98778.88
2023-03-27T22:44:35.381Z,98779.91
2023-03-27T22:49:38.724Z,98794.84
2023-03-27T22:54:42.029Z,98795.66
2023-03-27T22:59:46.979Z,98799.00
2023-03-27T23:04:50.632Z,98790.00
2023-03-27T23:09:53.995Z,98791.59
2023-03-27T23:14:58.884Z,98793.53
2023-03-27T23:20:02.197Z,98803.72
2023-03-27T23:25:06.868Z,98810.28
2023-03-27T23:30:12.426Z,98804.59
2023-03-27T23:35:15.918Z,98812.88
2023-03-27T23:40:19.390Z,98819.16
2023-03-27T23:45:24.288Z,98820.31
2023-03-27T23:50:27.786Z,98820.66
2023-03-27T23:55:31.384Z,98818.19
